Time;durP1;ratioP1;P1;durP2;ratioP2;P2;SDS_P1;SDS_P2;PMS_P1;PMS_P2;Temp;Humidity;BMP_temperature;BMP_pressure;BME280_temperature;BME280_humidity;BME280_pressure;Samples;Min_cycle;Max_cycle;Signal;HPM_P1;HPM_P2
2021/09/09 00:00:32;;;;;;;8.73;7.18;;;;;;;;;;5029031;28;20466;-81
2021/09/09 00:02:59;;;;;;;10.15;8.38;;;;;;;;;;5046493;28;20221;-81
2021/09/09 00:05:25;;;;;;;8.57;7.68;;;;;;;;;;5046612;28;20021;-81
2021/09/09 00:07:51;;;;;;;8.77;7.65;;;;;;;;;;5029768;28;20033;-81
2021/09/09 00:10:17;;;;;;;8.65;7.60;;;;;;;;;;5046611;28;20029;-81
2021/09/09 00:12:43;;;;;;;9.77;7.88;;;;;;;;;;5046135;28;20025;-81
2021/09/09 00:15:10;;;;;;;9.60;8.02;;;;;;;;;;5045093;28;20025;-81
2021/09/09 00:17:36;;;;;;;8.27;7.18;;;;;;;;;;5045614;28;20081;-81
2021/09/09 00:20:03;;;;;;;9.35;7.53;;;;;;;;;;5045429;28;20050;-81
2021/09/09 00:22:29;;;;;;;10.23;8.70;;;;;;;;;;5044587;28;20021;-82
2021/09/09 00:24:55;;;;;;;9.07;8.18;;;;;;;;;;5037518;28;20024;-81
2021/09/09 00:27:21;;;;;;;8.55;7.65;;;;;;;;;;5037035;28;20030;-81
2021/09/09 00:29:47;;;;;;;10.10;7.95;;;;;;;;;;5019604;28;20025;-82
2021/09/09 00:32:13;;;;;;;8.40;7.32;;;;;;;;;;5040684;28;20114;-81
2021/09/09 00:34:39;;;;;;;8.07;7.28;;;;;;;;;;5025383;28;20064;-81
2021/09/09 00:37:05;;;;;;;8.82;7.93;;;;;;;;;;5016539;28;20538;-81
2021/09/09 00:39:31;;;;;;;8.25;7.45;;;;;;;;;;5009554;28;20080;-82
2021/09/09 00:41:57;;;;;;;8.27;7.47;;;;;;;;;;5018412;28;20041;-82
2021/09/09 00:44:25;;;;;;;8.20;7.35;;;;;;;;;;5030549;28;20030;-81
2021/09/09 00:47:11;;;;;;;8.93;8.00;;;;;;;;;;5036553;28;20068;-81
2021/09/09 00:49:44;;;;;;;8.10;7.30;;;;;;;;;;5039241;28;20464;-81
2021/09/09 00:52:11;;;;;;;8.68;7.75;;;;;;;;;;5036712;28;20028;-81
2021/09/09 00:54:37;;;;;;;7.65;6.93;;;;;;;;;;5036737;28;20040;-82
2021/09/09 00:57:04;;;;;;;7.90;6.95;;;;;;;;;;5036946;28;20036;-80
2021/09/09 00:59:32;;;;;;;8.07;7.28;;;;;;;;;;5035748;28;20030;-79
2021/09/09 01:01:58;;;;;;;7.93;7.13;;;;;;;;;;5038710;28;20036;-79
2021/09/09 01:04:24;;;;;;;8.43;7.40;;;;;;;;;;5027087;28;20048;-80
2021/09/09 01:06:50;;;;;;;9.43;7.80;;;;;;;;;;5033768;28;20033;-80
2021/09/09 01:09:17;;;;;;;9.23;7.53;;;;;;;;;;5022122;28;20118;-81
2021/09/09 01:11:43;;;;;;;8.63;7.72;;;;;;;;;;5036766;28;20022;-81
2021/09/09 01:14:14;;;;;;;8.35;7.45;;;;;;;;;;5017708;28;20059;-82
2021/09/09 01:16:40;;;;;;;8.35;7.47;;;;;;;;;;5018678;28;20037;-81
2021/09/09 01:19:07;;;;;;;8.95;8.02;;;;;;;;;;5017824;28;20482;-82
2021/09/09 01:21:33;;;;;;;9.15;7.93;;;;;;;;;;5038253;28;20045;-81
2021/09/09 01:24:00;;;;;;;8.77;7.82;;;;;;;;;;5036492;28;20029;-81
2021/09/09 01:26:27;;;;;;;10.07;8.98;;;;;;;;;;5037134;28;20029;-82
2021/09/09 01:28:54;;;;;;;13.23;8.95;;;;;;;;;;5049507;28;20035;-82
2021/09/09 01:31:20;;;;;;;11.75;9.55;;;;;;;;;;5044249;28;20091;-82
2021/09/09 01:33:46;;;;;;;10.30;9.00;;;;;;;;;;5025431;28;20091;-82
2021/09/09 01:36:12;;;;;;;10.50;8.95;;;;;;;;;;5044220;28;20403;-81
2021/09/09 01:38:38;;;;;;;11.02;9.10;;;;;;;;;;5038714;28;20482;-81
2021/09/09 01:41:04;;;;;;;10.85;8.70;;;;;;;;;;5041490;28;20030;-82
2021/09/09 01:43:33;;;;;;;11.82;9.27;;;;;;;;;;5042114;28;20462;-82
2021/09/09 01:45:59;;;;;;;11.00;9.10;;;;;;;;;;5023190;28;20025;-81
2021/09/09 01:48:25;;;;;;;11.30;9.02;;;;;;;;;;5040375;28;20038;-80
2021/09/09 01:50:51;;;;;;;9.82;8.07;;;;;;;;;;5030011;28;20029;-81
2021/09/09 01:53:17;;;;;;;10.05;8.52;;;;;;;;;;5044506;28;20040;-79
2021/09/09 01:55:43;;;;;;;8.32;7.43;;;;;;;;;;5042769;28;20060;-80
2021/09/09 01:58:09;;;;;;;11.20;9.15;;;;;;;;;;5043906;28;20057;-81
2021/09/09 02:00:35;;;;;;;9.35;8.27;;;;;;;;;;5048022;28;20029;-81
2021/09/09 02:03:01;;;;;;;9.00;8.10;;;;;;;;;;5045402;28;20151;-80
2021/09/09 02:05:27;;;;;;;9.88;8.65;;;;;;;;;;5024258;28;20577;-80
2021/09/09 02:07:53;;;;;;;8.73;7.75;;;;;;;;;;5038336;28;20104;-80
2021/09/09 02:10:19;;;;;;;10.93;9.43;;;;;;;;;;5036374;28;20051;-80
2021/09/09 02:12:49;;;;;;;9.05;8.13;;;;;;;;;;5022009;28;20044;-80
2021/09/09 02:15:16;;;;;;;10.25;8.88;;;;;;;;;;5038230;28;20371;-80
2021/09/09 02:17:42;;;;;;;8.43;7.63;;;;;;;;;;5042104;28;20021;-81
2021/09/09 02:20:09;;;;;;;8.95;8.05;;;;;;;;;;5020515;28;20080;-81
2021/09/09 02:22:35;;;;;;;9.20;8.23;;;;;;;;;;5039457;28;20029;-80
2021/09/09 02:25:01;;;;;;;9.35;8.23;;;;;;;;;;5040940;28;20025;-81
2021/09/09 02:27:27;;;;;;;9.52;8.52;;;;;;;;;;5022232;28;20031;-82
2021/09/09 02:29:54;;;;;;;9.00;8.13;;;;;;;;;;5044556;28;20032;-81
2021/09/09 02:32:20;;;;;;;9.88;8.27;;;;;;;;;;5048849;28;20037;-81
2021/09/09 02:34:46;;;;;;;9.15;8.25;;;;;;;;;;5041116;28;20022;-81
2021/09/09 02:37:12;;;;;;;9.77;8.77;;;;;;;;;;5043072;28;20026;-81
2021/09/09 02:39:40;;;;;;;9.18;8.02;;;;;;;;;;5044067;28;20410;-81
2021/09/09 02:42:06;;;;;;;9.30;8.30;;;;;;;;;;5041710;28;20018;-81
2021/09/09 02:44:33;;;;;;;9.73;8.73;;;;;;;;;;5022621;28;20056;-81
2021/09/09 02:46:59;;;;;;;9.05;8.15;;;;;;;;;;5022023;28;20029;-81
2021/09/09 02:49:25;;;;;;;9.10;8.02;;;;;;;;;;5037800;28;20037;-80
2021/09/09 02:51:51;;;;;;;8.60;7.75;;;;;;;;;;5038654;28;20108;-80
2021/09/09 02:54:17;;;;;;;9.32;8.30;;;;;;;;;;5039199;28;20036;-81
2021/09/09 02:56:43;;;;;;;7.93;7.13;;;;;;;;;;5039226;28;20018;-80
2021/09/09 02:59:09;;;;;;;8.32;7.10;;;;;;;;;;5038829;28;20048;-80
2021/09/09 03:01:35;;;;;;;7.90;7.10;;;;;;;;;;5020850;28;20450;-80
2021/09/09 03:04:01;;;;;;;8.40;7.43;;;;;;;;;;5038389;28;20437;-80
2021/09/09 03:06:27;;;;;;;9.50;6.70;;;;;;;;;;5039456;28;20029;-80
2021/09/09 03:08:53;;;;;;;8.35;7.25;;;;;;;;;;5039765;28;20475;-81
2021/09/09 03:11:19;;;;;;;7.88;6.75;;;;;;;;;;5041030;28;20470;-81
2021/09/09 03:13:45;;;;;;;8.02;7.22;;;;;;;;;;5021771;28;20051;-80
2021/09/09 03:16:11;;;;;;;6.85;6.18;;;;;;;;;;5040836;28;20125;-81
2021/09/09 03:18:37;;;;;;;8.02;7.03;;;;;;;;;;5036534;28;20014;-80
2021/09/09 03:21:03;;;;;;;8.82;7.80;;;;;;;;;;5054191;28;20039;-81
2021/09/09 03:23:29;;;;;;;8.52;7.72;;;;;;;;;;5052790;28;20052;-81
2021/09/09 03:25:56;;;;;;;7.95;7.00;;;;;;;;;;5032352;28;20025;-81
2021/09/09 03:28:22;;;;;;;7.88;6.70;;;;;;;;;;5036987;28;20053;-82
2021/09/09 03:30:48;;;;;;;7.70;6.75;;;;;;;;;;5036394;28;20124;-82
2021/09/09 03:33:14;;;;;;;9.32;7.15;;;;;;;;;;5042208;28;20073;-82
2021/09/09 03:35:40;;;;;;;7.13;6.43;;;;;;;;;;5039738;28;20029;-81
2021/09/09 03:38:09;;;;;;;6.95;6.18;;;;;;;;;;5046811;28;20041;-81
2021/09/09 03:40:35;;;;;;;8.13;7.03;;;;;;;;;;5045705;28;20022;-81
2021/09/09 03:43:01;;;;;;;7.80;6.53;;;;;;;;;;5045494;28;20036;-82
2021/09/09 03:45:27;;;;;;;7.68;6.93;;;;;;;;;;5040362;28;20037;-79
2021/09/09 03:47:53;;;;;;;7.68;6.68;;;;;;;;;;5039569;28;20028;-81
2021/09/09 03:50:19;;;;;;;7.60;6.78;;;;;;;;;;5051656;28;20022;-82
2021/09/09 03:52:45;;;;;;;9.30;6.93;;;;;;;;;;5048367;28;20033;-79
2021/09/09 03:55:12;;;;;;;8.60;7.13;;;;;;;;;;5036652;28;20056;-82
2021/09/09 03:57:38;;;;;;;8.57;7.60;;;;;;;;;;5037710;28;20021;-83
2021/09/09 04:00:05;;;;;;;7.47;6.68;;;;;;;;;;5022569;28;20040;-82
2021/09/09 04:02:31;;;;;;;8.50;7.00;;;;;;;;;;5038185;28;20051;-83
2021/09/09 04:04:59;;;;;;;7.45;6.38;;;;;;;;;;5019370;28;20057;-81
2021/09/09 04:07:25;;;;;;;7.22;6.05;;;;;;;;;;5036346;28;20034;-80
2021/09/09 04:09:51;;;;;;;6.80;6.13;;;;;;;;;;5028711;28;20026;-82
2021/09/09 04:12:17;;;;;;;6.55;5.95;;;;;;;;;;5029757;28;20029;-82
2021/09/09 04:14:43;;;;;;;6.60;5.90;;;;;;;;;;5020702;28;20068;-82
2021/09/09 04:17:09;;;;;;;6.60;5.53;;;;;;;;;;5040449;28;20044;-82
2021/09/09 04:19:35;;;;;;;7.15;6.28;;;;;;;;;;5055641;28;20029;-82
2021/09/09 04:22:06;;;;;;;6.82;6.13;;;;;;;;;;5039649;28;20033;-80
2021/09/09 04:24:33;;;;;;;7.30;6.50;;;;;;;;;;5035958;28;20112;-82
2021/09/09 04:26:59;;;;;;;7.05;6.35;;;;;;;;;;5018999;28;20080;-79
2021/09/09 04:29:25;;;;;;;8.50;6.55;;;;;;;;;;5036203;28;20029;-79
2021/09/09 04:31:52;;;;;;;7.85;6.13;;;;;;;;;;5020557;28;20021;-80
2021/09/09 04:34:18;;;;;;;9.30;7.35;;;;;;;;;;5040571;28;20040;-81
2021/09/09 04:36:44;;;;;;;10.38;7.28;;;;;;;;;;5021008;28;20030;-81
2021/09/09 04:39:11;;;;;;;8.13;7.32;;;;;;;;;;5037933;28;20104;-81
2021/09/09 04:41:39;;;;;;;7.53;6.30;;;;;;;;;;5020960;28;20030;-80
2021/09/09 04:44:06;;;;;;;7.82;6.70;;;;;;;;;;5038298;28;20028;-80
2021/09/09 04:46:32;;;;;;;7.18;6.47;;;;;;;;;;5038827;28;20071;-81
2021/09/09 04:48:58;;;;;;;6.22;5.57;;;;;;;;;;5043250;28;20033;-79
2021/09/09 04:51:24;;;;;;;7.70;6.90;;;;;;;;;;5042347;28;20029;-80
2021/09/09 04:53:50;;;;;;;6.82;6.15;;;;;;;;;;5019302;28;20029;-81
2021/09/09 04:56:16;;;;;;;8.20;6.55;;;;;;;;;;5017177;28;20033;-80
2021/09/09 04:58:42;;;;;;;6.70;6.03;;;;;;;;;;5020182;28;20187;-80
2021/09/09 05:01:08;;;;;;;7.38;6.45;;;;;;;;;;5034887;28;20033;-82
2021/09/09 05:03:34;;;;;;;8.73;6.75;;;;;;;;;;5052786;22;20041;-82
2021/09/09 05:06:00;;;;;;;8.23;6.70;;;;;;;;;;5060499;28;20037;-81
2021/09/09 05:08:26;;;;;;;8.80;7.18;;;;;;;;;;5057895;28;20025;-83
2021/09/09 05:10:52;;;;;;;7.65;5.95;;;21.80;76.80;;;;;;5057880;28;20087;-81
2021/09/09 05:13:18;;;;;;;6.00;5.38;;;16.00;99.90;;;;;;5058877;28;20031;-85
2021/09/09 05:15:43;;;;;;;5.45;4.90;;;15.60;99.90;;;;;;5029669;28;20035;-84
2021/09/09 05:18:09;;;;;;;4.82;4.40;;;15.60;99.90;;;;;;5063521;28;20079;-84
2021/09/09 05:20:35;;;;;;;5.28;4.43;;;15.60;99.90;;;;;;5060048;28;20123;-83
2021/09/09 05:23:00;;;;;;;4.07;3.60;;;15.60;99.90;;;;;;5061145;28;20023;-83
2021/09/09 05:25:44;;;;;;;4.68;4.18;;;15.60;99.90;;;;;;5041111;28;20026;-83
2021/09/09 05:28:10;;;;;;;3.97;3.58;;;15.60;99.90;;;;;;5042905;28;20025;-83
2021/09/09 05:33:50;;;;;;;4.72;4.22;;;15.60;99.90;;;;;;5055969;28;20444;-83
2021/09/09 05:36:21;;;;;;;4.28;3.88;;;15.70;99.90;;;;;;5042764;28;20033;-83
2021/09/09 05:39:21;;;;;;;4.15;3.50;;;15.70;99.90;;;;;;5051567;28;20021;-83
2021/09/09 05:41:57;;;;;;;4.60;4.13;;;15.80;99.90;;;;;;5040539;28;20033;-83
2021/09/09 05:54:30;;;;;;;4.70;4.30;;;16.10;99.90;;;;;;5049022;28;20048;-83
2021/09/09 06:00:44;;;;;;;6.53;5.50;;;16.30;99.50;;;;;;5047336;28;20048;-84
2021/09/09 06:03:30;;;;;;;5.55;4.68;;;16.30;99.10;;;;;;5005377;28;20086;-83
2021/09/09 06:12:40;;;;;;;6.18;4.90;;;16.50;97.80;;;;;;5058776;28;20076;-83
2021/09/09 06:15:07;;;;;;;5.38;4.35;;;16.60;97.60;;;;;;5054733;28;20029;-83
2021/09/09 06:21:04;;;;;;;5.47;4.93;;;16.70;96.80;;;;;;5050671;28;20051;-84
2021/09/09 06:23:31;;;;;;;5.40;4.38;;;16.80;96.40;;;;;;5064110;28;20473;-83
2021/09/09 06:25:57;;;;;;;4.82;4.35;;;16.90;96.20;;;;;;5057572;28;20032;-83
2021/09/09 06:28:24;;;;;;;4.65;4.20;;;16.90;95.80;;;;;;5034830;28;20033;-82
2021/09/09 06:30:51;;;;;;;4.55;4.13;;;17.00;95.70;;;;;;5046325;28;20025;-83
2021/09/09 06:33:17;;;;;;;6.28;5.13;;;17.10;95.40;;;;;;5048648;28;20025;-83
2021/09/09 06:35:46;;;;;;;6.90;4.80;;;17.20;95.20;;;;;;5027937;28;20037;-83
2021/09/09 06:38:13;;;;;;;6.13;4.78;;;17.30;94.80;;;;;;5066799;28;20087;-83
2021/09/09 06:40:40;;;;;;;5.53;4.80;;;17.40;94.30;;;;;;5062038;28;20037;-83
2021/09/09 06:43:06;;;;;;;5.80;5.22;;;17.50;93.90;;;;;;5042134;28;20044;-83
2021/09/09 06:45:39;;;;;;;5.38;4.88;;;17.60;93.50;;;;;;5046560;28;20020;-81
2021/09/09 06:48:27;;;;;;;8.35;5.05;;;17.70;93.10;;;;;;5075268;28;20080;-81
2021/09/09 06:50:57;;;;;;;7.80;5.10;;;17.80;92.60;;;;;;5056610;28;20093;-82
2021/09/09 06:53:49;;;;;;;5.65;4.82;;;17.90;92.20;;;;;;5054017;28;20021;-82
2021/09/09 06:56:19;;;;;;;7.45;5.88;;;18.00;91.80;;;;;;5052944;28;20041;-82
2021/09/09 06:59:23;;;;;;;5.68;5.07;;;18.00;91.40;;;;;;5042273;28;20393;-82
2021/09/09 07:03:02;;;;;;;5.97;4.90;;;18.10;91.10;;;;;;4998274;28;20065;-83
2021/09/09 07:16:35;;;;;;;8.55;5.43;;;18.80;88.20;;;;;;4797866;29;20396;-82
2021/09/09 07:19:01;;;;;;;8.43;5.70;;;19.00;87.20;;;;;;4841581;29;20459;-84
2021/09/09 07:21:27;;;;;;;7.18;5.97;;;19.20;86.30;;;;;;4972033;28;20078;-82
2021/09/09 07:23:53;;;;;;;5.22;4.72;;;19.30;85.50;;;;;;5046011;28;20041;-83
2021/09/09 07:26:18;;;;;;;6.75;5.57;;;19.40;84.60;;;;;;5061664;28;20028;-84
2021/09/09 07:28:44;;;;;;;6.18;5.10;;;19.60;83.30;;;;;;5063669;28;20029;-83
2021/09/09 07:31:10;;;;;;;5.80;4.78;;;19.70;82.20;;;;;;5064145;28;20083;-84
2021/09/09 07:33:36;;;;;;;5.63;4.80;;;19.90;80.90;;;;;;5063913;28;20074;-84
2021/09/09 07:36:01;;;;;;;5.53;5.00;;;20.00;79.80;;;;;;5046307;28;20083;-83
2021/09/09 07:38:27;;;;;;;5.53;5.03;;;20.20;78.90;;;;;;5057178;28;20094;-84
2021/09/09 07:40:53;;;;;;;5.90;5.22;;;20.40;77.80;;;;;;5050215;28;20025;-83
2021/09/09 07:43:19;;;;;;;5.28;4.78;;;20.50;76.70;;;;;;5058695;28;20054;-84
2021/09/09 07:45:44;;;;;;;8.35;6.22;;;20.70;76.00;;;;;;5061226;28;20029;-83
2021/09/09 07:48:10;;;;;;;7.05;4.72;;;20.80;74.70;;;;;;5048875;28;20025;-85
2021/09/09 07:50:36;;;;;;;7.57;5.70;;;21.00;74.00;;;;;;5031597;28;20150;-82
2021/09/09 07:53:11;;;;;;;6.97;5.30;;;21.20;72.50;;;;;;5051221;28;20018;-84
2021/09/09 07:55:47;;;;;;;6.63;5.32;;;21.40;71.70;;;;;;5048825;28;20056;-85
2021/09/09 07:58:13;;;;;;;8.32;5.18;;;21.60;70.30;;;;;;5050075;28;20302;-85
2021/09/09 08:00:39;;;;;;;6.43;5.47;;;21.80;69.80;;;;;;5046538;28;20024;-85
2021/09/09 08:03:09;;;;;;;12.80;6.30;;;21.90;69.10;;;;;;5026347;28;20021;-85
2021/09/09 08:05:38;;;;;;;8.07;4.90;;;22.10;68.40;;;;;;5044819;28;20037;-85
2021/09/09 08:08:07;;;;;;;5.25;4.45;;;22.20;67.80;;;;;;5034878;28;20063;-85
2021/09/09 08:10:34;;;;;;;5.90;4.55;;;22.40;67.20;;;;;;5047993;28;20053;-84
2021/09/09 08:12:59;;;;;;;5.88;5.22;;;22.50;66.50;;;;;;5046894;28;20017;-85
2021/09/09 08:15:25;;;;;;;5.43;4.93;;;22.70;65.40;;;;;;5043731;28;20041;-84
2021/09/09 08:17:51;;;;;;;4.88;4.47;;;22.90;65.00;;;;;;5028602;28;20030;-85
2021/09/09 08:20:17;;;;;;;5.90;5.30;;;23.10;64.40;;;;;;5041903;28;20417;-84
2021/09/09 08:22:43;;;;;;;6.32;5.45;;;23.30;63.90;;;;;;5049892;28;20040;-85
2021/09/09 08:25:10;;;;;;;5.72;5.13;;;23.50;63.40;;;;;;5073807;28;20041;-83
2021/09/09 08:27:37;;;;;;;5.45;4.95;;;23.70;62.50;;;;;;5039756;28;20053;-83
2021/09/09 08:30:04;;;;;;;5.65;5.13;;;23.90;61.30;;;;;;5035564;28;20077;-83
2021/09/09 08:32:29;;;;;;;8.30;5.80;;;24.00;60.60;;;;;;5041333;28;20100;-81
2021/09/09 08:34:56;;;;;;;5.68;5.07;;;24.20;59.20;;;;;;5058494;28;20053;-83
2021/09/09 08:37:24;;;;;;;5.30;4.80;;;24.30;59.70;;;;;;5062686;28;20120;-83
2021/09/09 08:39:50;;;;;;;5.22;4.45;;;24.40;59.40;;;;;;5046903;28;20054;-85
2021/09/09 08:42:17;;;;;;;5.55;5.05;;;24.60;58.30;;;;;;5042874;28;20243;-85
2021/09/09 08:44:43;;;;;;;6.63;5.25;;;24.90;57.90;;;;;;5034245;28;20180;-84
2021/09/09 08:47:10;;;;;;;5.85;5.25;;;25.10;57.20;;;;;;5022289;28;20029;-84
2021/09/09 08:49:36;;;;;;;6.35;4.50;;;25.30;56.80;;;;;;5040978;28;20030;-84
2021/09/09 08:52:04;;;;;;;5.45;4.95;;;25.40;55.80;;;;;;5035773;28;20029;-84
2021/09/09 08:54:33;;;;;;;5.28;4.78;;;25.60;55.40;;;;;;5060915;28;20041;-84
2021/09/09 08:56:59;;;;;;;5.18;4.55;;;25.80;55.30;;;;;;5034367;28;20024;-84
2021/09/09 08:59:25;;;;;;;6.75;5.13;;;25.90;55.00;;;;;;5040344;28;20120;-84
2021/09/09 09:02:09;;;;;;;5.65;5.13;;;26.00;54.50;;;;;;5041198;28;20017;-85
2021/09/09 09:04:37;;;;;;;5.20;4.70;;;26.20;54.60;;;;;;5024359;28;20041;-85
2021/09/09 09:07:04;;;;;;;5.30;4.85;;;26.30;54.50;;;;;;5043498;28;20033;-85
2021/09/09 09:09:33;;;;;;;5.82;4.80;;;26.50;54.40;;;;;;5031328;28;20029;-85
2021/09/09 09:12:04;;;;;;;5.50;4.72;;;26.60;54.10;;;;;;5037297;28;20025;-85
2021/09/09 09:14:30;;;;;;;5.77;5.17;;;26.60;53.80;;;;;;5050679;28;20028;-84
2021/09/09 09:16:59;;;;;;;6.53;4.43;;;26.70;53.80;;;;;;5058313;28;20275;-85
2021/09/09 09:19:37;;;;;;;5.50;5.10;;;26.80;53.40;;;;;;5033182;28;20446;-84
2021/09/09 09:22:05;;;;;;;5.68;4.88;;;27.00;53.40;;;;;;5041719;28;20029;-83
2021/09/09 09:24:32;;;;;;;6.88;5.05;;;27.20;52.90;;;;;;5034875;28;20025;-85
2021/09/09 09:27:09;;;;;;;5.88;5.28;;;27.30;52.00;;;;;;5059449;28;20028;-84
2021/09/09 09:29:35;;;;;;;5.35;4.60;;;27.40;52.10;;;;;;5047987;28;20030;-83
2021/09/09 09:32:18;;;;;;;6.53;5.53;;;27.60;51.30;;;;;;5041540;28;20074;-84
2021/09/09 09:34:45;;;;;;;6.30;4.82;;;27.60;51.10;;;;;;5041067;28;20401;-83
2021/09/09 09:37:19;;;;;;;5.60;5.10;;;27.60;51.00;;;;;;5038062;28;20018;-85
2021/09/09 09:39:45;;;;;;;4.95;4.55;;;27.70;51.30;;;;;;5030966;28;20025;-85
2021/09/09 09:42:11;;;;;;;6.05;5.32;;;27.80;51.30;;;;;;5038772;28;20018;-85
2021/09/09 09:44:38;;;;;;;5.50;4.88;;;27.80;50.20;;;;;;5040335;28;20048;-84
2021/09/09 09:47:13;;;;;;;6.28;4.35;;;27.70;50.70;;;;;;5029141;28;20025;-84
2021/09/09 09:49:42;;;;;;;10.88;4.63;;;27.60;50.90;;;;;;5043058;28;20083;-84
2021/09/09 09:52:09;;;;;;;5.80;5.20;;;27.70;51.00;;;;;;5050799;28;20033;-84
2021/09/09 09:54:35;;;;;;;5.75;5.20;;;27.80;51.10;;;;;;5038856;28;20107;-83
2021/09/09 09:57:57;;;;;;;4.88;4.47;;;27.90;50.90;;;;;;5044832;28;20036;-84
2021/09/09 10:00:24;;;;;;;6.25;4.93;;;28.00;51.00;;;;;;5043006;28;20033;-84
2021/09/09 10:03:09;;;;;;;8.00;4.80;;;28.20;50.30;;;;;;5039092;28;20029;-84
2021/09/09 10:05:58;;;;;;;5.18;4.78;;;28.30;49.80;;;;;;5064659;28;20081;-84
2021/09/09 10:09:08;;;;;;;6.75;4.78;;;28.50;49.70;;;;;;5040037;28;20496;-84
2021/09/09 10:11:34;;;;;;;6.88;4.75;;;28.40;49.30;;;;;;5025331;28;20120;-85
2021/09/09 10:14:03;;;;;;;6.32;4.90;;;28.10;50.10;;;;;;5061094;28;20021;-85
2021/09/09 10:16:37;;;;;;;5.82;5.22;;;28.00;50.40;;;;;;5042219;28;20026;-85
2021/09/09 10:19:04;;;;;;;5.85;5.18;;;28.00;50.30;;;;;;5063113;28;20124;-85
2021/09/09 10:21:46;;;;;;;7.10;5.25;;;27.80;50.80;;;;;;5065380;28;20049;-85
2021/09/09 10:24:18;;;;;;;7.20;5.68;;;27.70;51.10;;;;;;5049398;28;20029;-84
2021/09/09 10:26:48;;;;;;;6.75;5.93;;;27.80;51.40;;;;;;5048671;28;20022;-85
2021/09/09 10:29:42;;;;;;;6.25;5.65;;;28.00;51.10;;;;;;5070378;28;20021;-85
2021/09/09 10:32:29;;;;;;;6.40;5.55;;;28.00;51.50;;;;;;5077122;28;20025;-84
2021/09/09 10:35:20;;;;;;;6.68;5.50;;;28.10;51.20;;;;;;5077076;28;20037;-85
2021/09/09 10:37:50;;;;;;;7.90;5.43;;;28.20;51.50;;;;;;5064797;28;20040;-85
2021/09/09 10:40:31;;;;;;;6.40;5.15;;;28.40;50.70;;;;;;5068654;28;20048;-85
2021/09/09 10:43:02;;;;;;;6.07;5.13;;;28.40;51.20;;;;;;5062412;28;20017;-84
2021/09/09 10:45:34;;;;;;;5.95;5.28;;;28.30;51.20;;;;;;5029204;28;20155;-85
2021/09/09 10:48:00;;;;;;;7.15;5.05;;;28.30;51.20;;;;;;5031194;28;20063;-85
2021/09/09 10:50:27;;;;;;;5.45;4.95;;;28.30;51.10;;;;;;5058865;28;20044;-85
2021/09/09 10:53:08;;;;;;;7.75;5.13;;;28.40;51.10;;;;;;5041751;28;20021;-85
2021/09/09 10:55:36;;;;;;;5.50;4.97;;;28.30;50.20;;;;;;5025298;28;20031;-85
2021/09/09 10:58:20;;;;;;;6.75;5.03;;;28.40;51.00;;;;;;5059947;28;20060;-85
2021/09/09 11:00:56;;;;;;;5.57;5.07;;;28.50;51.00;;;;;;5061996;28;20021;-85
2021/09/09 11:03:42;;;;;;;5.20;4.72;;;28.50;51.20;;;;;;5087703;22;20017;-79
2021/09/09 11:06:15;;;;;;;7.13;5.35;;;28.70;51.00;;;;;;5034581;28;20059;-82
2021/09/09 11:08:43;;;;;;;6.85;4.88;;;28.80;50.80;;;;;;5055427;28;20447;-83
2021/09/09 11:11:19;;;;;;;7.10;5.30;;;28.90;50.30;;;;;;5062392;28;20047;-83
2021/09/09 11:13:46;;;;;;;7.40;4.88;;;29.00;49.50;;;;;;5040851;28;20023;-84
2021/09/09 11:16:28;;;;;;;5.90;4.47;;;28.90;49.10;;;;;;5058898;28;20025;-84
2021/09/09 11:18:54;;;;;;;7.68;5.05;;;28.60;49.80;;;;;;5044780;28;20040;-80
2021/09/09 11:21:28;;;;;;;7.60;5.00;;;28.60;49.80;;;;;;5036003;28;20021;-81
2021/09/09 11:24:08;;;;;;;6.05;5.07;;;28.70;49.30;;;;;;5046214;28;20032;-83
2021/09/09 11:26:36;;;;;;;6.82;4.63;;;28.90;49.20;;;;;;5063741;28;20025;-80
2021/09/09 11:29:03;;;;;;;6.25;4.80;;;29.00;48.80;;;;;;5050614;28;20031;-81
2021/09/09 11:31:30;;;;;;;5.68;4.95;;;28.50;49.50;;;;;;5066679;28;20020;-82
2021/09/09 11:33:57;;;;;;;7.60;4.80;;;28.00;50.50;;;;;;5045550;28;20029;-80
2021/09/09 11:36:26;;;;;;;5.68;5.18;;;27.70;51.30;;;;;;5060851;28;20064;-82
2021/09/09 11:38:53;;;;;;;7.38;5.00;;;27.90;51.30;;;;;;5051893;28;20079;-81
2021/09/09 11:41:23;;;;;;;5.78;5.28;;;28.30;51.00;;;;;;5048147;28;20021;-82
2021/09/09 11:43:55;;;;;;;7.10;5.53;;;28.40;50.50;;;;;;5051009;28;20112;-82
2021/09/09 11:46:31;;;;;;;7.78;5.30;;;28.30;51.10;;;;;;5044820;28;20032;-81
2021/09/09 11:48:58;;;;;;;5.72;4.35;;;28.30;51.40;;;;;;5040411;28;20101;-81
2021/09/09 11:51:41;;;;;;;5.60;5.10;;;28.20;51.00;;;;;;5061596;28;20485;-82
2021/09/09 11:54:10;;;;;;;6.38;5.20;;;28.00;51.00;;;;;;5044990;28;20425;-82
2021/09/09 11:56:37;;;;;;;6.20;5.55;;;27.80;51.40;;;;;;5064060;28;20020;-84
2021/09/09 11:59:08;;;;;;;5.63;5.05;;;28.10;51.70;;;;;;5043053;28;20020;-81
2021/09/09 12:01:37;;;;;;;10.10;5.03;;;28.60;50.80;;;;;;5062509;28;20028;-81
2021/09/09 12:04:04;;;;;;;6.30;5.00;;;29.00;49.80;;;;;;5045653;28;20033;-83
2021/09/09 12:06:31;;;;;;;6.95;5.28;;;29.40;48.20;;;;;;5046029;28;20028;-83
2021/09/09 12:08:57;;;;;;;5.82;5.20;;;29.50;48.40;;;;;;5043080;28;20524;-84
2021/09/09 12:11:24;;;;;;;5.65;5.15;;;29.30;48.70;;;;;;5045639;28;20029;-84
2021/09/09 12:13:50;;;;;;;5.47;4.50;;;28.90;49.50;;;;;;5047170;28;20949;-80
2021/09/09 12:16:23;;;;;;;5.70;5.20;;;28.50;50.30;;;;;;5055502;28;20036;-83
2021/09/09 12:19:06;;;;;;;6.65;5.00;;;28.10;51.40;;;;;;5063662;28;20124;-83
2021/09/09 12:21:32;;;;;;;4.88;4.45;;;27.60;52.40;;;;;;5041997;28;20101;-82
2021/09/09 12:24:01;;;;;;;7.53;5.05;;;27.40;53.40;;;;;;5042771;28;20021;-84
2021/09/09 12:26:27;;;;;;;5.22;4.53;;;27.20;52.60;;;;;;5045477;28;20020;-84
2021/09/09 12:28:53;;;;;;;8.30;4.88;;;27.00;52.60;;;;;;5062206;28;20049;-81
2021/09/09 12:31:48;;;;;;;7.47;4.63;;;26.90;53.20;;;;;;5043208;28;20176;-85
2021/09/09 12:34:17;;;;;;;5.65;4.57;;;27.00;53.10;;;;;;5047282;28;20102;-83
2021/09/09 12:36:48;;;;;;;7.32;4.45;;;27.20;52.10;;;;;;5045137;28;20029;-83
2021/09/09 12:39:16;;;;;;;4.90;4.45;;;27.40;52.00;;;;;;5036871;28;20033;-84
2021/09/09 12:41:42;;;;;;;6.22;4.88;;;27.80;50.90;;;;;;5043956;28;20033;-82
2021/09/09 12:44:17;;;;;;;5.38;4.20;;;28.60;48.50;;;;;;5059011;28;20458;-81
2021/09/09 12:46:51;;;;;;;5.47;4.45;;;29.20;47.40;;;;;;5038144;28;20025;-81
2021/09/09 12:49:22;;;;;;;6.38;4.45;;;29.60;46.40;;;;;;5024992;28;20085;-84
2021/09/09 12:51:55;;;;;;;8.27;4.80;;;29.20;46.80;;;;;;5062661;28;20028;-85
2021/09/09 12:54:22;;;;;;;5.38;4.45;;;29.10;47.10;;;;;;5062511;28;20040;-83
2021/09/09 12:56:49;;;;;;;7.07;4.97;;;29.00;47.20;;;;;;5064938;28;20445;-82
2021/09/09 12:59:16;;;;;;;8.52;4.50;;;28.80;47.40;;;;;;5049063;28;20032;-80
2021/09/09 13:01:42;;;;;;;4.85;4.35;;;28.80;47.40;;;;;;5049579;28;20029;-81
2021/09/09 13:04:07;;;;;;;10.80;4.88;;;28.70;47.60;;;;;;5068975;28;20031;-80
2021/09/09 13:06:34;;;;;;;6.10;4.00;;;28.80;47.80;;;;;;5052518;28;20025;-81
2021/09/09 13:09:00;;;;;;;6.88;4.28;;;28.80;47.30;;;;;;5045766;28;20039;-82
2021/09/09 13:11:26;;;;;;;4.32;3.92;;;28.70;47.50;;;;;;5026367;28;20021;-83
2021/09/09 13:13:52;;;;;;;4.72;4.20;;;28.80;47.50;;;;;;5057926;28;20036;-82
2021/09/09 13:16:18;;;;;;;8.73;4.63;;;28.80;47.70;;;;;;5039561;28;20559;-80
2021/09/09 13:18:44;;;;;;;4.93;4.30;;;28.90;46.90;;;;;;5057767;28;20013;-79
2021/09/09 13:21:15;;;;;;;3.70;3.40;;;29.10;46.00;;;;;;5070659;28;20021;-79
2021/09/09 13:23:42;;;;;;;4.10;3.45;;;29.10;46.40;;;;;;5069162;28;20073;-79
2021/09/09 13:26:09;;;;;;;4.55;3.80;;;29.20;46.10;;;;;;5059099;28;20035;-84
2021/09/09 13:28:39;;;;;;;4.05;3.75;;;29.00;46.40;;;;;;5064025;28;20029;-82
2021/09/09 13:31:06;;;;;;;5.68;3.65;;;29.00;46.40;;;;;;5063187;28;20025;-81
2021/09/09 13:33:31;;;;;;;5.47;4.13;;;29.00;46.20;;;;;;5063259;28;20021;-83
2021/09/09 13:35:57;;;;;;;4.63;3.72;;;29.00;46.30;;;;;;5064164;28;20060;-81
2021/09/09 13:38:23;;;;;;;4.82;3.45;;;28.90;47.00;;;;;;5044757;28;20048;-83
2021/09/09 13:40:48;;;;;;;4.60;3.50;;;29.10;46.80;;;;;;5029373;28;20056;-85
2021/09/09 13:43:21;;;;;;;4.25;3.78;;;29.20;45.70;;;;;;5052714;28;20040;-79
2021/09/09 13:45:47;;;;;;;4.10;3.65;;;29.20;45.00;;;;;;5043729;28;20049;-82
2021/09/09 13:48:13;;;;;;;6.68;3.95;;;29.30;45.50;;;;;;5067638;28;20080;-79
2021/09/09 13:50:39;;;;;;;6.30;3.50;;;29.30;45.90;;;;;;5047646;28;20036;-81
2021/09/09 13:53:04;;;;;;;5.30;4.13;;;29.20;45.70;;;;;;5065234;28;20087;-83
2021/09/09 13:55:30;;;;;;;7.50;3.92;;;29.20;44.40;;;;;;5063090;28;20517;-82
2021/09/09 13:57:56;;;;;;;5.00;3.65;;;29.20;44.60;;;;;;5062053;28;20029;-80
2021/09/09 14:00:24;;;;;;;5.10;3.70;;;29.10;44.30;;;;;;5061585;28;20063;-83
2021/09/09 14:02:53;;;;;;;6.22;4.10;;;29.00;44.30;;;;;;5062567;28;20036;-77
2021/09/09 14:05:18;;;;;;;5.18;4.78;;;29.00;44.10;;;;;;5061232;28;20461;-83
2021/09/09 14:07:45;;;;;;;4.53;3.53;;;28.90;43.90;;;;;;5043342;28;20029;-81
2021/09/09 14:10:16;;;;;;;3.75;3.35;;;28.90;44.20;;;;;;5046107;28;20034;-82
2021/09/09 14:12:42;;;;;;;6.17;4.43;;;29.00;44.10;;;;;;5063835;28;20029;-82
2021/09/09 14:15:10;;;;;;;6.75;3.67;;;28.60;44.40;;;;;;5059315;28;20465;-81